createdAt,value
2019-05-06T00:02:13.823Z,74.30
2019-05-06T00:04:44.832Z,74.40
2019-05-06T00:07:15.401Z,74.40
2019-05-06T00:09:44.902Z,74.50
2019-05-06T00:12:14.539Z,74.50
2019-05-06T00:14:45.609Z,74.40
2019-05-06T00:17:16.323Z,74.30
2019-05-06T00:19:46.714Z,74.40
2019-05-06T00:22:16.212Z,74.50
2019-05-06T00:24:54.723Z,74.30
2019-05-06T00:27:25.993Z,74.80
2019-05-06T00:29:55.424Z,74.60
2019-05-06T00:32:24.928Z,74.70
2019-05-06T00:34:55.444Z,74.60
2019-05-06T00:37:24.934Z,74.70
2019-05-06T00:39:56.036Z,74.70
2019-05-06T00:42:34.712Z,74.90
2019-05-06T00:45:06.765Z,75.00
2019-05-06T00:47:36.313Z,75.20
2019-05-06T00:50:25.648Z,75.40
2019-05-06T00:52:56.134Z,75.50
2019-05-06T00:55:25.589Z,75.40
2019-05-06T00:57:55.018Z,75.60
2019-05-06T01:00:26.211Z,75.70
2019-05-06T01:02:55.786Z,75.80
2019-05-06T01:05:25.210Z,76.00
2019-05-06T01:07:55.122Z,76.10
2019-05-06T01:10:36.567Z,76.00
2019-05-06T01:13:27.893Z,75.90
2019-05-06T01:15:57.331Z,75.80
2019-05-06T01:18:26.804Z,75.80
2019-05-06T01:20:57.891Z,75.60
2019-05-06T01:23:27.326Z,75.40
2019-05-06T01:25:57.855Z,75.10
2019-05-06T01:28:28.226Z,74.80
2019-05-06T01:30:57.663Z,74.40
2019-05-06T01:33:27.169Z,74.30
2019-05-06T01:35:56.620Z,74.10
2019-05-06T01:39:04.398Z,73.80
2019-05-06T01:41:36.540Z,73.70
2019-05-06T01:44:06.510Z,73.70
2019-05-06T01:46:36.061Z,73.70
2019-05-06T01:49:05.734Z,73.80
2019-05-06T01:51:35.225Z,73.50
2019-05-06T01:54:04.824Z,73.40
2019-05-06T01:56:46.446Z,73.40
2019-05-06T01:59:15.943Z,73.10
2019-05-06T02:01:56.885Z,72.80
2019-05-06T02:04:16.431Z,72.90
2019-05-06T02:06:45.884Z,72.70
2019-05-06T02:09:17.293Z,72.60
2019-05-06T02:11:48.069Z,72.50
2019-05-06T02:14:18.013Z,72.60
2019-05-06T02:17:06.792Z,72.10
2019-05-06T02:19:36.831Z,72.20
2019-05-06T02:22:07.906Z,71.90
2019-05-06T02:24:53.726Z,72.10
2019-05-06T02:27:24.727Z,72.30
2019-05-06T02:30:05.137Z,71.90
2019-05-06T02:32:36.010Z,72.00
2019-05-06T02:38:04.974Z,71.50
2019-05-06T02:40:48.518Z,71.90
2019-05-06T02:43:34.081Z,71.80
2019-05-06T02:46:04.192Z,71.80
2019-05-06T02:48:43.723Z,71.60
2019-05-06T02:51:14.839Z,71.70
2019-05-06T02:53:44.284Z,71.20
2019-05-06T02:56:14.497Z,71.40
2019-05-06T02:58:44.040Z,71.60
2019-05-06T03:01:19.420Z,71.60
2019-05-06T03:03:53.287Z,71.50
2019-05-06T03:06:24.474Z,71.50
2019-05-06T03:08:54.436Z,71.40
2019-05-06T03:11:36.447Z,71.40
2019-05-06T03:14:05.955Z,71.20
2019-05-06T03:16:35.411Z,71.20
2019-05-06T03:19:06.264Z,71.20
2019-05-06T03:21:40.349Z,71.20
2019-05-06T03:24:17.415Z,71.40
2019-05-06T03:26:48.396Z,71.40
2019-05-06T03:29:18.473Z,71.40
2019-05-06T03:31:47.919Z,71.50
2019-05-06T03:34:46.827Z,71.60
2019-05-06T03:36:49.189Z,71.60
2019-05-06T03:39:18.752Z,71.70
2019-05-06T03:41:48.659Z,71.80
2019-05-06T03:44:18.004Z,71.70
2019-05-06T03:47:05.791Z,71.70
2019-05-06T03:49:42.944Z,71.80
2019-05-06T03:52:13.661Z,71.60
2019-05-06T03:54:45.898Z,71.30
2019-05-06T03:57:15.695Z,70.90
2019-05-06T03:59:54.884Z,70.60
2019-05-06T04:02:24.429Z,70.60
2019-05-06T04:04:56.787Z,70.70
2019-05-06T04:07:25.374Z,71.00
2019-05-06T04:09:54.964Z,70.80
2019-05-06T04:12:25.458Z,71.70
2019-05-06T04:14:55.165Z,71.00
2019-05-06T04:17:27.009Z,70.90
2019-05-06T04:19:58.176Z,70.70
2019-05-06T04:22:52.918Z,70.60
2019-05-06T04:25:43.540Z,70.60
2019-05-06T04:28:24.036Z,70.60
2019-05-06T04:31:13.325Z,70.50
2019-05-06T04:34:08.789Z,70.50
2019-05-06T04:36:23.744Z,70.60
2019-05-06T04:39:13.309Z,70.70
2019-05-06T04:41:43.522Z,70.70
2019-05-06T04:44:13.974Z,70.70
2019-05-06T04:46:44.558Z,70.90
2019-05-06T04:49:15.703Z,71.00
2019-05-06T04:51:45.421Z,71.10
2019-05-06T04:54:17.169Z,71.00
2019-05-06T04:56:47.319Z,71.20
2019-05-06T04:59:18.237Z,71.10
2019-05-06T05:01:53.175Z,71.20
2019-05-06T05:04:31.043Z,71.20
2019-05-06T05:06:53.802Z,71.20
2019-05-06T05:09:23.302Z,71.50
2019-05-06T05:11:55.930Z,71.20
2019-05-06T05:14:28.200Z,71.20
2019-05-06T05:19:42.922Z,71.20
2019-05-06T05:22:24.410Z,71.20
2019-05-06T05:24:53.858Z,71.10
2019-05-06T05:27:23.366Z,71.00
2019-05-06T05:29:52.828Z,71.20
2019-05-06T05:32:22.623Z,71.10
2019-05-06T05:34:52.399Z,71.80
2019-05-06T05:37:24.097Z,70.70
2019-05-06T05:39:54.041Z,70.90
2019-05-06T05:42:25.217Z,71.00
2019-05-06T05:44:54.969Z,70.90
2019-05-06T05:47:24.779Z,70.80
2019-05-06T05:49:59.692Z,70.30
2019-05-06T05:52:29.301Z,71.20
2019-05-06T05:54:58.822Z,70.30
2019-05-06T05:57:28.311Z,70.00
2019-05-06T05:59:57.810Z,70.70
2019-05-06T06:02:27.303Z,69.90
2019-05-06T06:04:57.743Z,70.10
2019-05-06T06:07:27.539Z,69.70
2019-05-06T06:09:58.685Z,69.50
2019-05-06T06:12:28.118Z,69.50
2019-05-06T06:15:02.339Z,69.50
2019-05-06T06:17:37.511Z,68.80
2019-05-06T06:20:25.690Z,69.00
2019-05-06T06:22:56.741Z,69.30
2019-05-06T06:25:26.332Z,69.10
2019-05-06T06:27:57.782Z,69.00
2019-05-06T06:30:34.857Z,69.20
2019-05-06T06:33:04.294Z,68.80
2019-05-06T06:35:35.383Z,68.90
2019-05-06T06:38:15.341Z,68.70
2019-05-06T06:40:46.799Z,68.50
2019-05-06T06:43:18.003Z,68.30
2019-05-06T06:45:47.410Z,68.20
2019-05-06T06:48:16.925Z,68.20
2019-05-06T06:50:46.754Z,68.00
2019-05-06T06:53:16.451Z,68.10
2019-05-06T06:55:46.139Z,67.80
2019-05-06T06:58:17.781Z,67.60
2019-05-06T07:00:53.166Z,67.00
2019-05-06T07:03:23.990Z,67.30
2019-05-06T07:06:02.286Z,67.00
2019-05-06T07:08:37.167Z,66.70
2019-05-06T07:11:05.890Z,66.70
2019-05-06T07:13:35.631Z,66.50
2019-05-06T07:16:05.085Z,65.90
2019-05-06T07:18:34.531Z,65.60
2019-05-06T07:21:19.342Z,65.60
2019-05-06T07:23:48.778Z,65.20
2019-05-06T07:26:19.898Z,65.30
2019-05-06T07:28:49.341Z,64.30
2019-05-06T07:31:23.712Z,63.90
2019-05-06T07:33:52.093Z,63.80
2019-05-06T07:36:22.846Z,63.30
2019-05-06T07:38:52.982Z,63.10
2019-05-06T07:41:43.466Z,62.60
2019-05-06T07:44:15.169Z,62.10
2019-05-06T07:46:46.278Z,61.70
2019-05-06T07:49:15.715Z,61.30
2019-05-06T07:51:52.890Z,61.30
2019-05-06T07:54:42.253Z,61.20
2019-05-06T07:57:12.676Z,60.60
2019-05-06T07:59:42.878Z,60.50
2019-05-06T08:02:13.078Z,60.70
2019-05-06T08:04:42.669Z,60.60
2019-05-06T08:07:12.689Z,60.90
2019-05-06T08:09:42.536Z,61.50
2019-05-06T08:12:12.478Z,61.00
2019-05-06T08:14:43.150Z,61.30
2019-05-06T08:17:16.536Z,61.40
2019-05-06T08:19:46.066Z,61.40
2019-05-06T08:22:22.882Z,61.00
2019-05-06T08:24:53.228Z,60.60
2019-05-06T08:27:22.977Z,59.90
2019-05-06T08:29:55.392Z,59.80
2019-05-06T08:32:26.219Z,59.80
2019-05-06T08:34:55.751Z,59.50
2019-05-06T08:37:31.913Z,59.10
2019-05-06T08:40:03.126Z,58.40
2019-05-06T08:42:33.030Z,58.10
2019-05-06T08:45:02.564Z,58.00
2019-05-06T08:47:32.994Z,57.80
2019-05-06T08:50:21.805Z,57.00
2019-05-06T08:52:58.843Z,56.70
2019-05-06T08:55:44.966Z,56.60
2019-05-06T08:58:14.409Z,56.60
2019-05-06T09:01:02.827Z,56.80
2019-05-06T09:03:34.820Z,56.30
2019-05-06T09:06:07.519Z,55.70
2019-05-06T09:08:38.769Z,55.30
2019-05-06T09:11:08.885Z,54.20
2019-05-06T09:13:38.342Z,53.80
2019-05-06T09:16:07.858Z,53.80
2019-05-06T09:18:37.383Z,53.80
2019-05-06T09:21:12.316Z,53.60
2019-05-06T09:23:42.446Z,53.10
2019-05-06T09:26:13.616Z,53.10
2019-05-06T09:28:53.116Z,52.80
2019-05-06T09:31:42.763Z,53.20
2019-05-06T09:34:23.348Z,53.80
2019-05-06T09:37:06.566Z,54.40
2019-05-06T09:39:36.084Z,55.40
2019-05-06T09:42:07.058Z,56.00
2019-05-06T09:44:36.589Z,56.30
2019-05-06T09:47:07.806Z,56.80
2019-05-06T09:49:38.885Z,56.80
2019-05-06T09:52:08.357Z,57.10
2019-05-06T09:54:39.457Z,57.50
2019-05-06T09:57:12.746Z,57.80
2019-05-06T09:59:44.527Z,57.90
2019-05-06T10:02:13.973Z,57.90
2019-05-06T10:04:43.418Z,57.50
2019-05-06T10:07:12.926Z,57.20
2019-05-06T10:09:43.382Z,56.40
2019-05-06T10:12:14.124Z,55.20
2019-05-06T10:14:43.820Z,55.30
2019-05-06T10:17:18.980Z,54.40
2019-05-06T10:19:48.615Z,53.90
2019-05-06T10:22:18.110Z,54.20
2019-05-06T10:24:47.583Z,53.50
2019-05-06T10:27:17.064Z,53.30
2019-05-06T10:29:52.189Z,53.40
2019-05-06T10:32:34.777Z,53.40
2019-05-06T10:35:06.543Z,53.00
2019-05-06T10:37:39.093Z,52.40
2019-05-06T10:40:15.432Z,51.80
2019-05-06T10:42:53.871Z,51.90
2019-05-06T10:45:28.661Z,51.90
2019-05-06T10:48:12.887Z,50.90
2019-05-06T10:50:43.257Z,50.20
2019-05-06T10:53:23.366Z,49.00
2019-05-06T10:56:02.354Z,50.10
2019-05-06T10:58:32.670Z,51.20
2019-05-06T11:01:03.881Z,52.50
2019-05-06T11:03:33.322Z,53.20
2019-05-06T11:06:02.804Z,53.90
2019-05-06T11:08:32.570Z,54.00
2019-05-06T11:11:15.455Z,54.80
2019-05-06T11:13:37.489Z,55.50
2019-05-06T11:16:09.117Z,55.80
2019-05-06T11:18:38.574Z,56.30
2019-05-06T11:21:08.103Z,57.10
2019-05-06T11:23:37.551Z,57.50
2019-05-06T11:26:06.977Z,57.40
2019-05-06T11:29:05.091Z,57.30
2019-05-06T11:31:36.254Z,57.40
2019-05-06T11:34:07.501Z,57.70
2019-05-06T11:36:54.486Z,58.30
2019-05-06T11:39:23.909Z,59.20
2019-05-06T11:42:22.848Z,56.50
2019-05-06T11:44:38.251Z,58.30
2019-05-06T11:47:07.780Z,60.90
2019-05-06T11:49:38.478Z,64.70
2019-05-06T11:52:07.858Z,66.50
2019-05-06T11:54:38.362Z,67.40
2019-05-06T11:57:09.386Z,68.00
2019-05-06T11:59:38.837Z,68.50
2019-05-06T12:02:09.921Z,68.60
2019-05-06T12:04:39.386Z,67.00
2019-05-06T12:07:15.475Z,66.10
2019-05-06T12:09:40.383Z,65.70
2019-05-06T12:12:12.604Z,67.60
2019-05-06T12:14:42.950Z,66.10
2019-05-06T12:17:12.745Z,66.70
2019-05-06T12:19:43.999Z,65.00
2019-05-06T12:22:13.478Z,65.50
2019-05-06T12:24:43.217Z,66.70
2019-05-06T12:27:14.438Z,65.10
2019-05-06T12:29:43.875Z,64.60
2019-05-06T12:32:24.100Z,63.90
2019-05-06T12:34:56.473Z,63.50
2019-05-06T12:37:27.137Z,63.90
2019-05-06T12:39:56.587Z,64.10
2019-05-06T12:42:29.403Z,64.20
2019-05-06T12:45:03.517Z,64.50
2019-05-06T12:47:37.067Z,65.20
2019-05-06T12:50:10.988Z,64.70
2019-05-06T12:52:44.125Z,64.50
2019-05-06T12:55:20.717Z,65.30
2019-05-06T12:57:45.250Z,65.40
2019-05-06T13:00:15.504Z,65.80
2019-05-06T13:02:44.990Z,65.00
2019-05-06T13:05:24.327Z,65.90
2019-05-06T13:07:55.358Z,65.40
2019-05-06T13:10:27.470Z,65.00
2019-05-06T13:12:58.557Z,65.10
2019-05-06T13:15:28.027Z,64.80
2019-05-06T13:17:57.464Z,65.00
2019-05-06T13:20:27.010Z,65.30
2019-05-06T13:23:07.469Z,65.40
2019-05-06T13:25:32.736Z,66.70
2019-05-06T13:28:03.329Z,67.90
2019-05-06T13:30:32.757Z,69.60
2019-05-06T13:33:08.001Z,69.50
2019-05-06T13:35:37.636Z,72.00
2019-05-06T13:38:07.226Z,70.50
2019-05-06T13:40:53.247Z,70.50
2019-05-06T13:43:12.957Z,70.40
2019-05-06T13:45:43.968Z,69.80
2019-05-06T13:48:22.910Z,68.70
2019-05-06T13:50:53.606Z,67.80
2019-05-06T13:53:37.751Z,67.20
2019-05-06T13:55:54.113Z,65.60
2019-05-06T13:58:24.739Z,61.90
2019-05-06T14:00:54.452Z,58.90
2019-05-06T14:03:23.901Z,56.90
2019-05-06T14:05:53.360Z,56.90
2019-05-06T14:08:22.833Z,55.80
2019-05-06T14:10:59.136Z,56.90
2019-05-06T14:13:23.353Z,56.40
2019-05-06T14:15:52.896Z,54.30
2019-05-06T14:18:23.411Z,50.40
2019-05-06T14:20:52.862Z,48.30
2019-05-06T14:23:22.569Z,49.10
2019-05-06T14:26:12.650Z,47.20
2019-05-06T14:29:02.190Z,46.20
2019-05-06T14:31:32.964Z,46.20
2019-05-06T14:34:02.416Z,46.20
2019-05-06T14:36:32.769Z,46.70
2019-05-06T14:39:07.025Z,45.20
2019-05-06T14:41:37.939Z,44.80
2019-05-06T14:44:12.103Z,47.10
2019-05-06T14:49:36.139Z,47.20
2019-05-06T14:52:05.679Z,47.20
2019-05-06T14:54:36.771Z,47.40
2019-05-06T14:57:07.838Z,48.50
2019-05-06T14:59:38.370Z,48.10
2019-05-06T15:02:08.375Z,48.40
2019-05-06T15:04:37.918Z,48.20
2019-05-06T15:07:12.438Z,47.70
2019-05-06T15:09:58.404Z,47.30
2019-05-06T15:12:23.032Z,46.80
2019-05-06T15:14:52.607Z,47.10
2019-05-06T15:17:23.050Z,47.50
2019-05-06T15:19:53.212Z,46.70
2019-05-06T15:22:22.896Z,46.80
2019-05-06T15:24:53.932Z,47.50
2019-05-06T15:27:23.416Z,47.90
2019-05-06T15:29:55.279Z,48.10
2019-05-06T15:32:32.442Z,46.00
2019-05-06T15:35:03.555Z,43.80
2019-05-06T15:37:46.600Z,41.90
2019-05-06T15:40:31.040Z,39.60
2019-05-06T15:42:48.729Z,37.30
2019-05-06T15:45:18.511Z,34.10
2019-05-06T15:47:48.049Z,33.20
2019-05-06T15:50:17.606Z,35.70
2019-05-06T15:52:47.191Z,35.30
2019-05-06T15:55:17.051Z,34.40
2019-05-06T15:57:46.501Z,34.40
2019-05-06T16:00:18.612Z,35.60
2019-05-06T16:02:48.186Z,36.10
2019-05-06T16:05:20.024Z,35.70
2019-05-06T16:07:48.893Z,35.50
2019-05-06T16:10:22.391Z,36.20
2019-05-06T16:25:13.190Z,36.50
2019-05-06T16:27:44.115Z,36.20
2019-05-06T16:30:15.715Z,36.20
2019-05-06T16:32:45.167Z,36.40
2019-05-06T16:35:16.653Z,36.40
2019-05-06T16:37:50.439Z,37.00
2019-05-06T16:40:22.772Z,37.80
2019-05-06T16:42:54.211Z,37.90
2019-05-06T16:45:23.572Z,37.40
2019-05-06T16:47:53.366Z,37.60
2019-05-06T16:50:23.578Z,38.00
2019-05-06T16:52:53.018Z,37.60
2019-05-06T16:55:33.649Z,38.10
2019-05-06T16:58:18.272Z,39.00
2019-05-06T17:00:49.361Z,39.30
2019-05-06T17:03:26.300Z,40.40
2019-05-06T17:06:14.158Z,40.80
2019-05-06T17:08:43.729Z,42.00
2019-05-06T17:11:26.169Z,41.60
2019-05-06T17:13:44.699Z,42.00
2019-05-06T17:16:14.264Z,42.50
2019-05-06T17:18:43.691Z,40.70
2019-05-06T17:21:13.265Z,41.10
2019-05-06T17:23:42.772Z,41.20
2019-05-06T17:26:12.762Z,41.50
2019-05-06T17:28:44.047Z,41.50
2019-05-06T17:31:32.321Z,42.10
2019-05-06T17:34:03.566Z,42.30
2019-05-06T17:36:39.610Z,43.00
2019-05-06T17:39:11.268Z,43.90
2019-05-06T17:41:48.377Z,44.40
2019-05-06T17:44:12.822Z,45.00
2019-05-06T17:47:02.742Z,45.30
2019-05-06T17:49:34.029Z,45.70
2019-05-06T17:52:07.812Z,45.90
2019-05-06T17:54:37.254Z,46.10
2019-05-06T17:57:06.787Z,46.00
2019-05-06T17:59:37.589Z,46.40
2019-05-06T18:02:09.201Z,47.00
2019-05-06T18:04:38.759Z,47.00
2019-05-06T18:07:12.216Z,47.00
2019-05-06T18:09:42.620Z,47.80
2019-05-06T18:12:13.891Z,48.10
2019-05-06T18:14:43.739Z,48.40
2019-05-06T18:17:13.306Z,48.90
2019-05-06T18:19:42.974Z,49.10
2019-05-06T18:22:13.114Z,49.40
2019-05-06T18:24:42.772Z,50.20
2019-05-06T18:27:13.085Z,49.70
2019-05-06T18:29:42.787Z,50.10
2019-05-06T18:32:13.479Z,50.30
2019-05-06T18:34:44.526Z,50.70
2019-05-06T18:37:13.980Z,51.00
2019-05-06T18:39:43.480Z,51.30
2019-05-06T18:42:18.979Z,51.60
2019-05-06T18:44:43.998Z,51.90
2019-05-06T18:47:13.451Z,51.70
2019-05-06T18:49:42.959Z,52.30
2019-05-06T18:52:13.155Z,52.40
2019-05-06T18:54:43.153Z,52.40
2019-05-06T18:57:13.108Z,52.60
2019-05-06T18:59:42.825Z,52.60
2019-05-06T19:02:13.091Z,52.60
2019-05-06T19:04:45.695Z,53.10
2019-05-06T19:07:17.100Z,53.30
2019-05-06T19:09:52.328Z,53.00
2019-05-06T19:12:31.847Z,53.20
2019-05-06T19:14:54.668Z,53.50
2019-05-06T19:17:24.122Z,53.50
2019-05-06T19:20:06.407Z,53.70
2019-05-06T19:22:35.875Z,54.10
2019-05-06T19:25:05.440Z,54.10
2019-05-06T19:27:34.875Z,54.20
2019-05-06T19:30:05.975Z,54.40
2019-05-06T19:32:35.537Z,54.60
2019-05-06T19:35:06.131Z,54.50
2019-05-06T19:37:35.740Z,54.50
2019-05-06T19:40:06.405Z,54.60
2019-05-06T19:42:46.039Z,54.50
2019-05-06T19:45:07.555Z,54.40
2019-05-06T19:47:37.478Z,54.70
2019-05-06T19:50:07.273Z,54.90
2019-05-06T19:52:42.036Z,55.00
2019-05-06T19:55:12.387Z,55.20
2019-05-06T19:57:43.089Z,55.30
2019-05-06T20:00:14.032Z,55.30
2019-05-06T20:02:43.558Z,55.70
2019-05-06T20:05:17.469Z,55.40
2019-05-06T20:07:52.145Z,55.30
2019-05-06T20:10:26.121Z,55.50
2019-05-06T20:13:01.607Z,55.60
2019-05-06T20:15:42.240Z,55.70
2019-05-06T20:18:11.342Z,56.00
2019-05-06T20:20:42.340Z,56.10
2019-05-06T20:23:13.076Z,56.30
2019-05-06T20:25:44.705Z,56.40
2019-05-06T20:28:13.749Z,56.50
2019-05-06T20:30:43.201Z,56.30
2019-05-06T20:33:12.697Z,56.40
2019-05-06T20:35:43.237Z,56.60
2019-05-06T20:38:13.019Z,56.60
2019-05-06T20:40:43.072Z,56.70
2019-05-06T20:43:19.599Z,56.80
2019-05-06T20:45:44.086Z,57.00
2019-05-06T20:48:13.541Z,57.50
2019-05-06T20:50:43.165Z,57.60
2019-05-06T20:53:12.738Z,57.60
2019-05-06T20:55:43.374Z,58.00
2019-05-06T20:58:13.142Z,58.40
2019-05-06T21:00:43.080Z,58.60
2019-05-06T21:03:12.713Z,58.90
2019-05-06T21:05:43.475Z,59.40
2019-05-06T21:08:13.301Z,59.30
2019-05-06T21:10:43.147Z,59.50
2019-05-06T21:13:13.387Z,59.60
2019-05-06T21:15:44.092Z,59.80
2019-05-06T21:18:14.519Z,59.90
2019-05-06T21:20:43.949Z,59.90
2019-05-06T21:23:13.466Z,60.00
2019-05-06T21:25:43.283Z,60.00
2019-05-06T21:28:14.250Z,59.90
2019-05-06T21:30:44.875Z,59.80
2019-05-06T21:33:16.026Z,60.00
2019-05-06T21:35:48.631Z,60.50
2019-05-06T21:38:16.834Z,59.90
2019-05-06T21:40:46.334Z,60.00
2019-05-06T21:43:15.771Z,60.20
2019-05-06T21:45:45.223Z,60.10
2019-05-06T21:48:14.678Z,59.80
2019-05-06T21:50:44.164Z,60.00
2019-05-06T21:53:14.677Z,59.90
2019-05-06T21:55:44.368Z,59.80
2019-05-06T21:58:13.804Z,59.80
2019-05-06T22:00:47.556Z,59.70
2019-05-06T22:03:17.071Z,59.90
2019-05-06T22:05:46.507Z,60.00
2019-05-06T22:08:15.983Z,60.10
2019-05-06T22:10:45.451Z,60.10
2019-05-06T22:13:14.886Z,60.30
2019-05-06T22:15:44.428Z,60.30
2019-05-06T22:18:13.894Z,60.30
2019-05-06T22:21:02.949Z,60.30
2019-05-06T22:23:34.099Z,60.30
2019-05-06T22:26:13.072Z,60.50
2019-05-06T22:28:34.610Z,61.30
2019-05-06T22:31:04.055Z,60.60
2019-05-06T22:33:33.506Z,60.40
2019-05-06T22:36:02.978Z,60.00
2019-05-06T22:38:32.439Z,60.70
2019-05-06T22:41:02.414Z,60.90
2019-05-06T22:43:32.677Z,61.00
2019-05-06T22:46:02.647Z,61.20
2019-05-06T22:48:32.465Z,61.20
2019-05-06T22:51:02.669Z,61.50
2019-05-06T22:53:32.793Z,61.90
2019-05-06T22:56:07.006Z,62.30
2019-05-06T22:58:36.485Z,62.50
2019-05-06T23:01:08.630Z,62.90
2019-05-06T23:03:38.082Z,63.30
2019-05-06T23:06:07.529Z,63.60
2019-05-06T23:08:37.008Z,63.90
2019-05-06T23:11:06.465Z,64.30
2019-05-06T23:13:35.930Z,64.70
2019-05-06T23:16:05.362Z,65.00
2019-05-06T23:18:34.798Z,65.50
2019-05-06T23:21:04.275Z,65.70
2019-05-06T23:23:36.357Z,66.10
2019-05-06T23:26:22.897Z,66.40
2019-05-06T23:28:52.697Z,66.50
2019-05-06T23:31:24.491Z,66.80
2019-05-06T23:33:55.210Z,66.70
2019-05-06T23:36:24.644Z,66.70
2019-05-06T23:39:33.953Z,66.60
2019-05-06T23:42:17.238Z,66.70
2019-05-06T23:45:23.035Z,66.90
2019-05-06T23:48:30.663Z,67.00
2019-05-06T23:51:36.654Z,67.10
2019-05-06T23:54:21.570Z,67.50
2019-05-06T23:56:49.674Z,68.20
2019-05-06T23:59:19.129Z,68.20
